createdAt,value
2024-05-09T00:00:54.289Z,0
2024-05-09T00:02:03.438Z,0
2024-05-09T00:03:11.640Z,0
2024-05-09T00:04:20.802Z,0
2024-05-09T00:05:30.002Z,0
2024-05-09T00:06:39.220Z,0
2024-05-09T00:07:48.298Z,0
2024-05-09T00:08:57.689Z,0
2024-05-09T00:10:05.667Z,0
2024-05-09T00:11:14.088Z,0
2024-05-09T00:12:23.059Z,0
2024-05-09T00:13:32.488Z,0
2024-05-09T00:14:41.370Z,0
2024-05-09T00:15:50.760Z,0
2024-05-09T00:16:59.820Z,0
2024-05-09T00:18:08.923Z,0
2024-05-09T00:19:18.072Z,0
2024-05-09T00:20:27.242Z,0
2024-05-09T00:21:36.450Z,0
2024-05-09T00:22:45.577Z,0
2024-05-09T00:23:54.767Z,0
2024-05-09T00:25:03.929Z,0
2024-05-09T00:26:13.003Z,0
2024-05-09T00:27:21.370Z,0
2024-05-09T00:28:30.458Z,0
2024-05-09T00:29:39.636Z,0
2024-05-09T00:30:48.967Z,0
2024-05-09T00:31:57.995Z,0
2024-05-09T00:33:06.175Z,0
2024-05-09T00:34:14.362Z,0
2024-05-09T00:35:22.558Z,0
2024-05-09T00:36:31.757Z,0
2024-05-09T00:37:40.886Z,0
2024-05-09T00:38:50.087Z,0
2024-05-09T00:39:59.241Z,0
2024-05-09T00:41:08.456Z,0
2024-05-09T00:42:17.590Z,0
2024-05-09T00:43:26.765Z,0
2024-05-09T00:44:35.935Z,0
2024-05-09T00:45:45.146Z,0
2024-05-09T00:46:54.277Z,0
2024-05-09T00:48:03.458Z,0
2024-05-09T00:49:12.625Z,0
2024-05-09T00:50:20.815Z,0
2024-05-09T00:51:30.022Z,0
2024-05-09T00:52:39.265Z,0
2024-05-09T00:53:48.332Z,0
2024-05-09T00:54:57.498Z,0
2024-05-09T00:56:06.702Z,0
2024-05-09T00:57:14.867Z,0
2024-05-09T00:58:23.234Z,0
2024-05-09T00:59:32.228Z,0
2024-05-09T01:00:41.492Z,0
2024-05-09T01:01:50.599Z,0
2024-05-09T01:03:01.076Z,0
2024-05-09T01:04:08.932Z,0
2024-05-09T01:05:18.103Z,0
2024-05-09T01:06:27.255Z,0
2024-05-09T01:07:36.442Z,0
2024-05-09T01:08:45.645Z,0
2024-05-09T01:09:54.817Z,0
2024-05-09T01:11:04.080Z,0
2024-05-09T01:12:13.115Z,0
2024-05-09T01:13:21.308Z,0
2024-05-09T01:14:30.502Z,0
2024-05-09T01:15:39.693Z,0
2024-05-09T01:16:48.834Z,0
2024-05-09T01:17:57.997Z,0
2024-05-09T01:19:07.193Z,0
2024-05-09T01:20:15.374Z,0
2024-05-09T01:21:23.561Z,0
2024-05-09T01:22:31.762Z,0
2024-05-09T01:23:40.941Z,0
2024-05-09T01:24:50.093Z,0
2024-05-09T01:25:59.348Z,0
2024-05-09T01:27:08.443Z,0
2024-05-09T01:28:17.617Z,0
2024-05-09T01:29:26.788Z,0
2024-05-09T01:30:35.966Z,0
2024-05-09T01:31:45.128Z,0
2024-05-09T01:32:54.312Z,0
2024-05-09T01:34:03.510Z,0
2024-05-09T01:35:12.650Z,0
2024-05-09T01:36:21.876Z,0
2024-05-09T01:37:30.020Z,0
2024-05-09T01:38:39.188Z,0
2024-05-09T01:39:48.359Z,0
2024-05-09T01:40:57.523Z,0
2024-05-09T01:42:06.701Z,0
2024-05-09T01:43:15.866Z,0
2024-05-09T01:44:24.088Z,0
2024-05-09T01:45:32.286Z,0
2024-05-09T01:46:41.421Z,0
2024-05-09T01:47:50.615Z,0
2024-05-09T01:48:59.803Z,0
2024-05-09T01:50:08.947Z,0
2024-05-09T01:51:18.115Z,0
2024-05-09T01:52:27.288Z,0
2024-05-09T01:53:36.462Z,0
2024-05-09T01:54:45.686Z,0
2024-05-09T01:55:54.825Z,0
2024-05-09T01:57:03.991Z,0
2024-05-09T01:58:13.199Z,0
2024-05-09T01:59:22.340Z,0
2024-05-09T02:00:30.512Z,0
2024-05-09T02:01:39.694Z,0
2024-05-09T02:02:48.865Z,0
2024-05-09T02:03:58.035Z,0
2024-05-09T02:05:07.237Z,0
2024-05-09T02:06:16.379Z,0
2024-05-09T02:07:24.601Z,0
2024-05-09T02:08:33.755Z,0
2024-05-09T02:09:41.968Z,0
2024-05-09T02:10:51.110Z,0
2024-05-09T02:12:00.278Z,0
2024-05-09T02:13:09.462Z,0
2024-05-09T02:14:18.618Z,0
2024-05-09T02:15:27.796Z,0
2024-05-09T02:16:37.868Z,0
2024-05-09T02:17:46.142Z,0
2024-05-09T02:18:55.307Z,0
2024-05-09T02:20:04.512Z,0
2024-05-09T02:21:13.660Z,0
2024-05-09T02:22:22.827Z,0
2024-05-09T02:23:32.014Z,0
2024-05-09T02:24:40.231Z,0
2024-05-09T02:25:49.389Z,0
2024-05-09T02:26:58.543Z,0
2024-05-09T02:28:07.786Z,0
2024-05-09T02:29:16.878Z,0
2024-05-09T02:30:26.081Z,0
2024-05-09T02:31:35.244Z,0
2024-05-09T02:32:44.406Z,0
2024-05-09T02:33:53.574Z,0
2024-05-09T02:35:02.755Z,0
2024-05-09T02:36:11.949Z,0
2024-05-09T02:37:21.088Z,0
2024-05-09T02:38:30.304Z,0
2024-05-09T02:39:38.490Z,0
2024-05-09T02:40:47.633Z,3
2024-05-09T02:41:56.846Z,3
2024-05-09T02:43:05.978Z,3
2024-05-09T02:44:15.161Z,3
2024-05-09T02:45:24.322Z,0
2024-05-09T02:46:33.488Z,3
2024-05-09T02:47:42.664Z,3
2024-05-09T02:48:51.872Z,3
2024-05-09T02:50:01.014Z,3
2024-05-09T02:51:10.185Z,3
2024-05-09T02:52:19.353Z,3
2024-05-09T02:53:28.538Z,3
2024-05-09T02:54:36.719Z,3
2024-05-09T02:55:45.992Z,3
2024-05-09T02:56:55.093Z,3
2024-05-09T03:00:22.583Z,3
2024-05-09T03:01:31.823Z,3
2024-05-09T03:02:40.975Z,3
2024-05-09T03:03:50.193Z,3
2024-05-09T03:04:59.266Z,3
2024-05-09T03:06:08.532Z,3
2024-05-09T03:07:17.656Z,4
2024-05-09T03:08:26.779Z,4
2024-05-09T03:09:35.008Z,4
2024-05-09T03:10:44.188Z,4
2024-05-09T03:11:53.373Z,4
2024-05-09T03:13:02.492Z,9
2024-05-09T03:14:11.671Z,1
2024-05-09T03:15:20.862Z,1
2024-05-09T03:16:30.027Z,5
2024-05-09T03:17:39.196Z,5
2024-05-09T03:18:48.355Z,10
2024-05-09T03:19:57.562Z,6
2024-05-09T03:21:06.690Z,6
2024-05-09T03:22:15.883Z,15
2024-05-09T03:23:24.071Z,11
2024-05-09T03:24:33.230Z,9
2024-05-09T03:25:42.438Z,9
2024-05-09T03:26:51.593Z,13
2024-05-09T03:28:00.961Z,14
2024-05-09T03:29:09.972Z,19
2024-05-09T03:30:19.101Z,19
2024-05-09T03:31:28.323Z,34
2024-05-09T03:32:36.498Z,26
2024-05-09T03:33:44.678Z,36
2024-05-09T03:34:53.838Z,62
2024-05-09T03:36:02.023Z,55
2024-05-09T03:37:11.201Z,51
2024-05-09T03:38:20.368Z,70
2024-05-09T03:39:29.607Z,83
2024-05-09T03:40:38.711Z,97
2024-05-09T03:41:47.881Z,120
2024-05-09T03:42:57.105Z,130
2024-05-09T03:44:06.231Z,140
2024-05-09T03:45:15.414Z,150
2024-05-09T03:46:24.579Z,174
2024-05-09T03:47:33.759Z,172
2024-05-09T03:48:42.958Z,204
2024-05-09T03:49:52.102Z,216
2024-05-09T03:51:00.343Z,223
2024-05-09T03:52:09.467Z,248
2024-05-09T03:53:18.665Z,277
2024-05-09T03:54:27.805Z,300
2024-05-09T03:55:36.999Z,316
2024-05-09T03:56:45.169Z,349
2024-05-09T03:57:53.366Z,371
2024-05-09T03:59:02.530Z,389
2024-05-09T04:00:11.775Z,415
2024-05-09T04:01:20.983Z,457
2024-05-09T04:02:30.074Z,483
2024-05-09T04:03:39.238Z,503
2024-05-09T04:04:49.138Z,537
2024-05-09T04:05:57.568Z,576
2024-05-09T04:07:06.740Z,586
2024-05-09T04:08:15.946Z,621
2024-05-09T04:09:25.092Z,672
2024-05-09T04:10:34.287Z,707
2024-05-09T04:11:43.434Z,750
2024-05-09T04:12:51.627Z,781
2024-05-09T04:14:00.805Z,832
2024-05-09T04:15:09.986Z,863
2024-05-09T04:16:19.146Z,901
2024-05-09T04:17:28.316Z,932
2024-05-09T04:18:37.498Z,958
2024-05-09T04:19:45.701Z,993
2024-05-09T04:20:53.870Z,1028
2024-05-09T04:22:03.043Z,1055
2024-05-09T04:23:12.207Z,1096
2024-05-09T04:24:21.383Z,1105
2024-05-09T04:25:30.561Z,1148
2024-05-09T04:26:39.728Z,1194
2024-05-09T04:27:48.939Z,1205
2024-05-09T04:28:58.093Z,1257
2024-05-09T04:30:07.238Z,1265
2024-05-09T04:31:16.431Z,1308
2024-05-09T04:32:25.587Z,1313
2024-05-09T04:33:34.766Z,1404
2024-05-09T04:34:43.956Z,1415
2024-05-09T04:35:52.239Z,1494
2024-05-09T04:37:01.333Z,1510
2024-05-09T04:38:10.464Z,1567
2024-05-09T04:39:19.641Z,1619
2024-05-09T04:40:28.846Z,1449
2024-05-09T04:41:37.979Z,1573
2024-05-09T04:42:46.215Z,1638
2024-05-09T04:43:54.391Z,1778
2024-05-09T04:45:03.565Z,1915
2024-05-09T04:46:11.735Z,1857
2024-05-09T04:47:20.920Z,1872
2024-05-09T04:48:30.093Z,1820
2024-05-09T04:49:39.254Z,1753
2024-05-09T04:50:48.469Z,1892
2024-05-09T04:51:57.602Z,2056
2024-05-09T04:53:06.797Z,1980
2024-05-09T04:54:15.966Z,1968
2024-05-09T04:55:25.126Z,1934
2024-05-09T04:56:34.291Z,2080
2024-05-09T04:57:43.462Z,2276
2024-05-09T04:58:52.684Z,2302
2024-05-09T05:00:01.827Z,2390
2024-05-09T05:01:11.002Z,2394
2024-05-09T05:02:19.159Z,2387
2024-05-09T05:03:28.331Z,2504
2024-05-09T05:04:37.533Z,2564
2024-05-09T05:05:46.743Z,2602
2024-05-09T05:06:54.908Z,2580
2024-05-09T05:08:03.071Z,2806
2024-05-09T05:09:12.248Z,2908
2024-05-09T05:10:21.430Z,2972
2024-05-09T05:11:30.588Z,3036
2024-05-09T05:12:39.795Z,3533
2024-05-09T05:13:48.966Z,3418
2024-05-09T05:14:58.115Z,2886
2024-05-09T05:16:07.284Z,2500
2024-05-09T05:17:16.466Z,3111
2024-05-09T05:18:26.071Z,3449
2024-05-09T05:19:34.880Z,3364
2024-05-09T05:20:43.971Z,3202
2024-05-09T05:21:53.172Z,3284
2024-05-09T05:23:01.331Z,3372
2024-05-09T05:24:10.492Z,3478
2024-05-09T05:25:19.673Z,3455
2024-05-09T05:26:28.844Z,3553
2024-05-09T05:27:38.014Z,3527
2024-05-09T05:28:47.187Z,3715
2024-05-09T05:29:56.351Z,3846
2024-05-09T05:31:05.551Z,4000
2024-05-09T05:32:14.730Z,3977
2024-05-09T05:33:23.913Z,4143
2024-05-09T05:34:33.051Z,4184
2024-05-09T05:35:42.231Z,3680
2024-05-09T05:36:51.388Z,4162
2024-05-09T05:37:59.588Z,4585
2024-05-09T05:39:08.754Z,4153
2024-05-09T05:40:17.928Z,4112
2024-05-09T05:41:27.142Z,4223
2024-05-09T05:42:36.286Z,4321
2024-05-09T05:43:45.451Z,4127
2024-05-09T05:44:54.625Z,4216
2024-05-09T05:46:03.807Z,4161
2024-05-09T05:47:12.983Z,4253
2024-05-09T05:48:22.137Z,4215
2024-05-09T05:49:31.323Z,4209
2024-05-09T05:50:40.562Z,4286
2024-05-09T05:51:49.685Z,4244
2024-05-09T05:52:57.843Z,4227
2024-05-09T05:54:07.968Z,4320
2024-05-09T05:55:16.182Z,4538
2024-05-09T05:56:25.373Z,4807
2024-05-09T05:57:34.540Z,4379
2024-05-09T05:58:43.694Z,4854
2024-05-09T05:59:52.955Z,4730
2024-05-09T06:01:02.048Z,4867
2024-05-09T06:02:11.223Z,4684
2024-05-09T06:03:20.475Z,4771
2024-05-09T06:04:29.561Z,5108
2024-05-09T06:05:38.749Z,5081
2024-05-09T06:06:47.945Z,5109
2024-05-09T06:07:56.165Z,4980
2024-05-09T06:09:04.331Z,5101
2024-05-09T06:10:12.505Z,5155
2024-05-09T06:11:21.657Z,5258
2024-05-09T06:12:30.821Z,5280
2024-05-09T06:13:39.992Z,5317
2024-05-09T06:14:49.169Z,5315
2024-05-09T06:15:58.343Z,5326
2024-05-09T06:17:07.537Z,5385
2024-05-09T06:18:16.678Z,5334
2024-05-09T06:19:25.851Z,5413
2024-05-09T06:20:35.046Z,5476
2024-05-09T06:21:44.198Z,5500
2024-05-09T06:22:53.366Z,5577
2024-05-09T06:24:02.575Z,5510
2024-05-09T06:25:10.726Z,5619
2024-05-09T06:26:19.914Z,5646
2024-05-09T06:27:29.077Z,5639
2024-05-09T06:28:38.275Z,5665
2024-05-09T06:29:47.961Z,5742
2024-05-09T06:30:56.604Z,6102
2024-05-09T06:32:05.761Z,5793
2024-05-09T06:33:15.042Z,5794
2024-05-09T06:34:24.097Z,5660
2024-05-09T06:35:33.292Z,5744
2024-05-09T06:36:42.472Z,5720
2024-05-09T06:37:51.625Z,5848
2024-05-09T06:39:00.910Z,5678
2024-05-09T06:40:09.003Z,5807
2024-05-09T06:41:18.398Z,5879
2024-05-09T06:42:27.342Z,5879
2024-05-09T06:43:35.754Z,6036
2024-05-09T06:44:43.757Z,6061
2024-05-09T06:45:53.021Z,5983
2024-05-09T06:47:02.168Z,6178
2024-05-09T06:48:11.247Z,6063
2024-05-09T06:49:20.521Z,5890
2024-05-09T06:50:29.565Z,6012
2024-05-09T06:51:38.747Z,6135
2024-05-09T06:52:47.972Z,6023
2024-05-09T06:53:57.117Z,6127
2024-05-09T06:55:06.365Z,6206
2024-05-09T06:56:15.454Z,6187
2024-05-09T06:57:24.653Z,6853
2024-05-09T06:58:33.967Z,5855
2024-05-09T06:59:41.966Z,6185
2024-05-09T07:00:51.255Z,6318
2024-05-09T07:02:00.446Z,6338
2024-05-09T07:03:09.482Z,6854
2024-05-09T07:04:18.707Z,6155
2024-05-09T07:05:27.827Z,6278
2024-05-09T07:06:36.999Z,6297
2024-05-09T07:07:46.201Z,6497
2024-05-09T07:08:55.610Z,6424
2024-05-09T07:10:04.605Z,6097
2024-05-09T07:11:13.985Z,6522
2024-05-09T07:12:22.877Z,6569
2024-05-09T07:13:32.282Z,6585
2024-05-09T07:14:40.410Z,6647
2024-05-09T07:15:49.427Z,6665
2024-05-09T07:16:58.567Z,6811
2024-05-09T07:19:17.110Z,6681
2024-05-09T07:20:26.077Z,6761
2024-05-09T07:21:35.257Z,6652
2024-05-09T07:22:44.517Z,6718
2024-05-09T07:23:53.646Z,6756
2024-05-09T07:25:02.779Z,6681
2024-05-09T07:26:11.952Z,6757
2024-05-09T07:27:21.198Z,6766
2024-05-09T07:28:30.302Z,6827
2024-05-09T07:29:38.502Z,6827
2024-05-09T07:30:47.740Z,7067
2024-05-09T07:31:56.829Z,6870
2024-05-09T07:33:06.036Z,6729
2024-05-09T07:34:15.191Z,6666
2024-05-09T07:35:23.378Z,6881
2024-05-09T07:36:31.574Z,6981
2024-05-09T07:37:39.760Z,6852
2024-05-09T07:38:48.928Z,6892
2024-05-09T07:39:58.124Z,6896
2024-05-09T07:41:07.273Z,6954
2024-05-09T07:42:16.435Z,7027
2024-05-09T07:43:25.630Z,6959
2024-05-09T07:44:34.871Z,7042
2024-05-09T07:45:43.931Z,7011
2024-05-09T07:46:53.142Z,7047
2024-05-09T07:48:02.290Z,7048
2024-05-09T07:49:11.479Z,7136
2024-05-09T07:50:20.646Z,7126
2024-05-09T07:51:29.808Z,7122
2024-05-09T07:52:38.002Z,7122
2024-05-09T07:53:47.235Z,7057
2024-05-09T07:54:56.353Z,7054
2024-05-09T07:56:05.536Z,7977
2024-05-09T07:57:14.700Z,6619
2024-05-09T07:58:23.866Z,6687
2024-05-09T07:59:32.062Z,7312
2024-05-09T08:00:40.250Z,7324
2024-05-09T08:01:49.514Z,7319
2024-05-09T08:02:58.597Z,7361
2024-05-09T08:04:07.770Z,7344
2024-05-09T08:05:16.983Z,7416
2024-05-09T08:06:26.308Z,7403
2024-05-09T08:07:35.298Z,7297
2024-05-09T08:08:44.475Z,7374
2024-05-09T08:09:53.635Z,7429
2024-05-09T08:11:02.840Z,7534
2024-05-09T08:12:11.974Z,7434
2024-05-09T08:13:21.153Z,7458
2024-05-09T08:14:30.301Z,7460
2024-05-09T08:15:38.500Z,7497
2024-05-09T08:16:47.659Z,7513
2024-05-09T08:17:56.844Z,7553
2024-05-09T08:19:06.983Z,7561
2024-05-09T08:20:15.176Z,7504
2024-05-09T08:21:24.348Z,7780
2024-05-09T08:22:33.525Z,7515
2024-05-09T08:23:42.686Z,7843
2024-05-09T08:24:51.850Z,7811
2024-05-09T08:26:01.066Z,7660
2024-05-09T08:27:10.218Z,7459
2024-05-09T08:28:19.377Z,7524
2024-05-09T08:29:28.555Z,7673
2024-05-09T08:30:36.734Z,7817
2024-05-09T08:31:45.911Z,7680
2024-05-09T08:32:55.122Z,7705
2024-05-09T08:34:04.253Z,7716
2024-05-09T08:35:13.480Z,7877
2024-05-09T08:36:22.655Z,7909
2024-05-09T08:37:31.765Z,8026
2024-05-09T08:38:40.948Z,7885
2024-05-09T08:39:50.389Z,7971
2024-05-09T08:42:08.598Z,7962
2024-05-09T08:43:17.994Z,8018
2024-05-09T08:44:27.100Z,8100
2024-05-09T08:45:34.990Z,8067
2024-05-09T08:46:44.157Z,8025
2024-05-09T08:47:53.444Z,8022
2024-05-09T08:49:02.549Z,8160
2024-05-09T08:50:11.684Z,8091
2024-05-09T08:51:21.109Z,8171
2024-05-09T08:52:30.023Z,8179
2024-05-09T08:53:39.209Z,8148
2024-05-09T08:54:48.988Z,8150
2024-05-09T08:55:57.732Z,8173
2024-05-09T08:57:06.710Z,8237
2024-05-09T08:58:15.921Z,8279
2024-05-09T08:59:25.092Z,8225
2024-05-09T09:00:33.248Z,8264
2024-05-09T09:01:42.563Z,8253
2024-05-09T09:02:51.572Z,8258
2024-05-09T09:03:59.864Z,8301
2024-05-09T09:05:07.989Z,8370
2024-05-09T09:06:16.233Z,8388
2024-05-09T09:07:25.361Z,8399
2024-05-09T09:08:34.603Z,8419
2024-05-09T09:09:43.707Z,8501
2024-05-09T09:10:52.949Z,8524
2024-05-09T09:12:02.072Z,8340
2024-05-09T09:13:11.231Z,8480
2024-05-09T09:14:20.418Z,8497
2024-05-09T09:15:29.537Z,8468
2024-05-09T09:16:38.775Z,8540
2024-05-09T09:17:47.905Z,8520
2024-05-09T09:18:57.095Z,8546
2024-05-09T09:20:06.244Z,8600
2024-05-09T09:21:15.438Z,8562
2024-05-09T09:22:23.690Z,8586
2024-05-09T09:23:32.776Z,8622
2024-05-09T09:24:41.929Z,8626
2024-05-09T09:25:51.106Z,8663
2024-05-09T09:27:00.322Z,8671
2024-05-09T09:28:09.491Z,8721
2024-05-09T09:29:18.736Z,8801
2024-05-09T09:30:27.786Z,8773
2024-05-09T09:31:37.115Z,8850
2024-05-09T09:32:46.161Z,8807
2024-05-09T09:33:55.426Z,8898
2024-05-09T09:35:04.596Z,8882
2024-05-09T09:36:13.674Z,8949
2024-05-09T09:37:21.829Z,9034
2024-05-09T09:38:31.034Z,8995
2024-05-09T09:39:39.212Z,9086
2024-05-09T09:40:47.406Z,9103
2024-05-09T09:41:56.638Z,9121
2024-05-09T09:43:05.737Z,9159
2024-05-09T09:44:14.957Z,9152
2024-05-09T09:45:24.093Z,9167
2024-05-09T09:46:33.293Z,9208
2024-05-09T09:47:42.423Z,9229
2024-05-09T09:48:51.657Z,9330
2024-05-09T09:50:00.781Z,9315
2024-05-09T09:51:10.020Z,9388
2024-05-09T09:52:19.130Z,9444
2024-05-09T09:53:28.311Z,9433
2024-05-09T09:54:37.464Z,9440
2024-05-09T09:55:45.689Z,9463
2024-05-09T09:56:54.842Z,9516
2024-05-09T09:58:04.009Z,9538
2024-05-09T09:59:13.186Z,9604
2024-05-09T10:00:22.343Z,9612
2024-05-09T10:01:31.582Z,9648
2024-05-09T10:02:40.681Z,9659
2024-05-09T10:03:49.857Z,9794
2024-05-09T10:04:59.048Z,9900
2024-05-09T10:06:08.230Z,9631
2024-05-09T10:07:17.436Z,9585
2024-05-09T10:08:26.578Z,9661
2024-05-09T10:09:35.757Z,9942
2024-05-09T10:11:53.117Z,9968
2024-05-09T10:13:01.285Z,9854
2024-05-09T10:14:09.506Z,10099
2024-05-09T10:15:17.653Z,10032
2024-05-09T10:16:26.850Z,10170
2024-05-09T10:17:36.039Z,10063
2024-05-09T10:18:45.253Z,10122
2024-05-09T10:19:54.409Z,10119
2024-05-09T10:21:03.649Z,10270
2024-05-09T10:22:12.728Z,10482
2024-05-09T10:23:21.880Z,10477
2024-05-09T10:24:31.142Z,10743
2024-05-09T10:25:40.252Z,10606
2024-05-09T10:26:49.653Z,10950
2024-05-09T10:27:58.914Z,10356
2024-05-09T10:29:07.794Z,10584
2024-05-09T10:30:15.981Z,10832
2024-05-09T10:31:25.235Z,11131
2024-05-09T10:32:34.375Z,10901
2024-05-09T10:33:43.446Z,11110
2024-05-09T10:34:52.665Z,11417
2024-05-09T10:36:01.774Z,11569
2024-05-09T10:37:10.959Z,11857
2024-05-09T10:38:20.109Z,11972
2024-05-09T10:39:29.428Z,11577
2024-05-09T10:40:38.510Z,11744
2024-05-09T10:41:46.691Z,11644
2024-05-09T10:42:54.850Z,11870
2024-05-09T10:44:04.169Z,11794
2024-05-09T10:45:13.193Z,12133
2024-05-09T10:46:22.457Z,12272
2024-05-09T10:47:31.530Z,12236
2024-05-09T10:48:40.704Z,12165
2024-05-09T10:49:49.877Z,12172
2024-05-09T10:50:59.060Z,12140
2024-05-09T10:52:08.215Z,12103
2024-05-09T10:53:17.423Z,11871
2024-05-09T10:54:26.572Z,13167
2024-05-09T10:55:35.743Z,10736
2024-05-09T10:56:44.933Z,11912
2024-05-09T10:57:53.098Z,12511
2024-05-09T10:59:02.358Z,17264
2024-05-09T11:00:11.485Z,12984
2024-05-09T11:01:20.627Z,14413
2024-05-09T11:02:29.817Z,14187
2024-05-09T11:03:39.023Z,16461
2024-05-09T11:04:47.169Z,9585
2024-05-09T11:05:55.379Z,13210
2024-05-09T11:07:03.579Z,13704
2024-05-09T11:08:12.758Z,14213
2024-05-09T11:09:21.885Z,14113
2024-05-09T11:10:31.064Z,19045
2024-05-09T11:11:40.238Z,17198
2024-05-09T11:12:49.446Z,9727
2024-05-09T11:13:58.629Z,9173
2024-05-09T11:15:07.885Z,9178
2024-05-09T11:16:16.925Z,8868
2024-05-09T11:17:26.117Z,8873
2024-05-09T11:18:35.304Z,9059
2024-05-09T11:19:44.456Z,8984
2024-05-09T11:20:53.626Z,8832
2024-05-09T11:22:02.069Z,4174
2024-05-09T11:23:11.009Z,22433
2024-05-09T11:24:20.170Z,4577
2024-05-09T11:25:29.315Z,14570
2024-05-09T11:26:38.490Z,14321
2024-05-09T11:27:47.706Z,15453
2024-05-09T11:28:55.870Z,20470
2024-05-09T11:30:04.038Z,11336
2024-05-09T11:31:13.211Z,9127
2024-05-09T11:32:22.404Z,8409
2024-05-09T11:33:31.558Z,8961
2024-05-09T11:34:40.750Z,7275
2024-05-09T11:35:49.931Z,3686
2024-05-09T11:36:59.099Z,16758
2024-05-09T11:38:08.401Z,16664
2024-05-09T11:39:17.446Z,8975
2024-05-09T11:40:26.629Z,3054
2024-05-09T11:41:35.795Z,14868
2024-05-09T11:42:44.959Z,3202
2024-05-09T11:43:54.104Z,10012
2024-05-09T11:45:02.301Z,11761
2024-05-09T11:46:11.493Z,13472
2024-05-09T11:47:20.642Z,13886
2024-05-09T11:48:29.819Z,13914
2024-05-09T11:49:38.996Z,13955
2024-05-09T11:50:48.164Z,14394
2024-05-09T11:51:56.372Z,14564
2024-05-09T11:53:04.695Z,15005
2024-05-09T11:54:12.812Z,14686
2024-05-09T11:55:21.908Z,14661
2024-05-09T11:56:31.106Z,15541
2024-05-09T11:57:40.268Z,16241
2024-05-09T11:58:50.010Z,15523
2024-05-09T11:59:58.676Z,14984
2024-05-09T12:01:07.765Z,14952
2024-05-09T12:02:16.961Z,15200
2024-05-09T12:03:26.178Z,14944
2024-05-09T12:04:35.291Z,14677
2024-05-09T12:05:44.480Z,14497
2024-05-09T12:06:53.630Z,14793
2024-05-09T12:08:02.810Z,15204
2024-05-09T12:09:11.009Z,15087
2024-05-09T12:10:20.210Z,15127
2024-05-09T12:11:29.365Z,18083
2024-05-09T12:12:38.517Z,9442
2024-05-09T12:13:47.682Z,9238
2024-05-09T12:14:56.863Z,3264
2024-05-09T12:16:06.032Z,13447
2024-05-09T12:17:15.228Z,10525
2024-05-09T12:18:24.400Z,12316
2024-05-09T12:19:33.547Z,15047
2024-05-09T12:20:42.770Z,14872
2024-05-09T12:21:51.924Z,8777
2024-05-09T12:23:01.076Z,8537
2024-05-09T12:24:09.251Z,8444
2024-05-09T12:25:17.447Z,8252
2024-05-09T12:26:25.679Z,8198
2024-05-09T12:27:34.809Z,8199
2024-05-09T12:28:43.987Z,9021
2024-05-09T12:29:53.207Z,9140
2024-05-09T12:31:02.466Z,9396
2024-05-09T12:32:11.503Z,8584
2024-05-09T12:33:20.752Z,3897
2024-05-09T12:34:29.856Z,14406
2024-05-09T12:35:39.004Z,14025
2024-05-09T12:36:48.212Z,14080
2024-05-09T12:37:57.371Z,14086
2024-05-09T12:39:06.568Z,14095
2024-05-09T12:40:15.700Z,14037
2024-05-09T12:41:23.888Z,14240
2024-05-09T12:42:33.060Z,14759
2024-05-09T12:43:42.223Z,15211
2024-05-09T12:44:51.407Z,15122
2024-05-09T12:46:00.679Z,15616
2024-05-09T12:48:19.122Z,14790
2024-05-09T12:49:28.143Z,15632
2024-05-09T12:50:36.284Z,14424
2024-05-09T12:51:44.473Z,14713
2024-05-09T12:52:53.686Z,14752
2024-05-09T12:54:02.906Z,15384
2024-05-09T12:55:12.129Z,16160
2024-05-09T12:56:21.260Z,16310
2024-05-09T12:57:30.640Z,16676
2024-05-09T12:58:39.595Z,16633
2024-05-09T12:59:48.735Z,16322
2024-05-09T13:00:57.856Z,16340
2024-05-09T13:02:07.252Z,16877
2024-05-09T13:03:16.238Z,17292
2024-05-09T13:04:25.621Z,16959
2024-05-09T13:05:34.543Z,17357
2024-05-09T13:06:42.751Z,16449
2024-05-09T13:07:51.908Z,17529
2024-05-09T13:09:01.233Z,16691
2024-05-09T13:10:10.252Z,17664
2024-05-09T13:11:20.194Z,14987
2024-05-09T13:12:28.601Z,16780
2024-05-09T13:13:36.801Z,17596
2024-05-09T13:14:45.016Z,17804
2024-05-09T13:15:53.352Z,18140
2024-05-09T13:17:02.382Z,18562
2024-05-09T13:18:11.513Z,18854
2024-05-09T13:19:20.691Z,18820
2024-05-09T13:20:29.942Z,18793
2024-05-09T13:21:39.023Z,19485
2024-05-09T13:22:48.226Z,19608
2024-05-09T13:23:57.363Z,20210
2024-05-09T13:25:06.535Z,16537
2024-05-09T13:26:15.713Z,19457
2024-05-09T13:27:24.884Z,25441
2024-05-09T13:28:34.078Z,5396
2024-05-09T13:29:43.222Z,21237
2024-05-09T13:30:51.418Z,19550
2024-05-09T13:32:00.576Z,20087
2024-05-09T13:33:09.771Z,20728
2024-05-09T13:34:18.926Z,21034
2024-05-09T13:35:28.109Z,21943
2024-05-09T13:36:37.270Z,22407
2024-05-09T13:37:46.483Z,22494
2024-05-09T13:38:55.627Z,22228
2024-05-09T13:40:04.791Z,23195
2024-05-09T13:41:14.072Z,22944
2024-05-09T13:42:23.136Z,23307
2024-05-09T13:43:32.317Z,23477
2024-05-09T13:44:41.482Z,23585
2024-05-09T13:45:49.856Z,23303
2024-05-09T13:46:58.865Z,25160
2024-05-09T13:48:09.295Z,24178
2024-05-09T13:49:17.265Z,24025
2024-05-09T13:50:26.347Z,22638
2024-05-09T13:51:35.531Z,21681
2024-05-09T13:52:44.715Z,24060
2024-05-09T13:53:52.929Z,23892
2024-05-09T13:55:01.116Z,22804
2024-05-09T13:56:10.308Z,22005
2024-05-09T13:57:19.434Z,27895
2024-05-09T13:58:28.601Z,31953
2024-05-09T13:59:37.803Z,28371
2024-05-09T14:00:47.078Z,27458
2024-05-09T14:01:56.124Z,29575
2024-05-09T14:03:05.289Z,24541
2024-05-09T14:04:14.576Z,27678
2024-05-09T14:06:32.804Z,31495
2024-05-09T14:07:42.071Z,31540
2024-05-09T14:08:51.243Z,27373
2024-05-09T14:09:59.405Z,25813
2024-05-09T14:11:08.683Z,35965
2024-05-09T14:12:17.684Z,23521
2024-05-09T14:13:26.888Z,28455
2024-05-09T14:14:36.065Z,30183
2024-05-09T14:15:45.342Z,31111
2024-05-09T14:16:54.412Z,30015
2024-05-09T14:18:03.588Z,24220
2024-05-09T14:19:12.926Z,29012
2024-05-09T14:20:21.900Z,16583
2024-05-09T14:21:31.136Z,18257
2024-05-09T14:22:40.247Z,20922
2024-05-09T14:23:50.217Z,51644
2024-05-09T14:24:57.634Z,35423
2024-05-09T14:26:06.790Z,37433
2024-05-09T14:27:15.937Z,25401
2024-05-09T14:28:25.230Z,24484
2024-05-09T14:29:34.297Z,19245
2024-05-09T14:30:43.522Z,24721
2024-05-09T14:31:52.708Z,21734
2024-05-09T14:33:01.859Z,31657
2024-05-09T14:34:11.008Z,35374
2024-05-09T14:35:20.166Z,22920
2024-05-09T14:36:28.546Z,24008
2024-05-09T14:37:36.541Z,27976
2024-05-09T14:38:45.698Z,26842
2024-05-09T14:39:54.898Z,31943
2024-05-09T14:41:04.056Z,37720
2024-05-09T14:42:13.212Z,29305
2024-05-09T14:43:22.379Z,22788
2024-05-09T14:44:31.541Z,23413
2024-05-09T14:45:40.788Z,20263
2024-05-09T14:46:49.896Z,34565
2024-05-09T14:47:59.058Z,41533
2024-05-09T14:49:08.243Z,27981
2024-05-09T14:50:17.408Z,30535
2024-05-09T14:51:26.639Z,33887
2024-05-09T14:52:34.768Z,36501
2024-05-09T14:53:43.955Z,42074
2024-05-09T14:54:53.136Z,29962
2024-05-09T14:56:02.445Z,24501
2024-05-09T14:57:10.487Z,37743
2024-05-09T14:58:19.722Z,42879
2024-05-09T14:59:28.825Z,31913
2024-05-09T15:00:38.058Z,27043
2024-05-09T15:01:47.173Z,39710
2024-05-09T15:02:56.362Z,37182
2024-05-09T15:04:05.564Z,22774
2024-05-09T15:05:14.684Z,33579
2024-05-09T15:06:24.074Z,32088
2024-05-09T15:07:33.008Z,28644
2024-05-09T15:08:42.239Z,26540
2024-05-09T15:09:51.442Z,33321
2024-05-09T15:11:00.607Z,32891
2024-05-09T15:12:08.820Z,13204
2024-05-09T15:13:18.042Z,17657
2024-05-09T15:14:27.101Z,26664
2024-05-09T15:15:36.293Z,19040
2024-05-09T15:16:45.450Z,26533
2024-05-09T15:17:54.580Z,32897
2024-05-09T15:19:03.787Z,28409
2024-05-09T15:20:12.968Z,30592
2024-05-09T15:21:22.235Z,30133
2024-05-09T15:22:31.338Z,27376
2024-05-09T15:23:40.497Z,28524
2024-05-09T15:25:58.820Z,35967
2024-05-09T15:27:06.996Z,37174
2024-05-09T15:28:16.192Z,30486
2024-05-09T15:29:25.334Z,35579
2024-05-09T15:30:34.531Z,31537
2024-05-09T15:31:43.690Z,45890
2024-05-09T15:32:52.879Z,36982
2024-05-09T15:34:02.074Z,38112
2024-05-09T15:36:20.375Z,43269
2024-05-09T15:37:29.532Z,41361
2024-05-09T15:38:38.713Z,45425
2024-05-09T15:39:47.935Z,50938
2024-05-09T15:40:57.171Z,39952
2024-05-09T15:42:05.413Z,41582